Time;durP1;ratioP1;P1;durP2;ratioP2;P2;SDS_P1;SDS_P2;PMS_P1;PMS_P2;Temp;Humidity;BMP_temperature;BMP_pressure;BME280_temperature;BME280_humidity;BME280_pressure;Samples;Min_cycle;Max_cycle;Signal;HPM_P1;HPM_P2
2021/09/07 00:00:08;;;;;;;12.60;9.80;;;11.20;99.90;;;;;;5074590;28;20032;-73
2021/09/07 00:02:34;;;;;;;13.55;10.10;;;11.20;99.90;;;;;;5073320;28;20024;-73
2021/09/07 00:04:59;;;;;;;15.32;10.88;;;11.20;99.90;;;;;;5075021;28;20071;-73
2021/09/07 00:07:25;;;;;;;13.07;10.43;;;11.20;99.90;;;;;;5074495;28;20020;-73
2021/09/07 00:09:52;;;;;;;16.48;11.07;;;11.10;99.90;;;;;;5074598;28;20027;-73
2021/09/07 00:12:18;;;;;;;17.42;11.13;;;11.10;99.90;;;;;;5074580;28;20435;-73
2021/09/07 00:14:44;;;;;;;15.32;10.30;;;11.10;99.90;;;;;;5074342;28;20016;-73
2021/09/07 00:17:11;;;;;;;13.52;9.35;;;11.10;99.90;;;;;;5074629;28;20025;-73
2021/09/07 00:19:37;;;;;;;12.60;9.50;;;11.10;99.90;;;;;;5074142;28;20050;-73
2021/09/07 00:22:03;;;;;;;12.95;9.48;;;11.10;99.90;;;;;;5074198;28;20016;-73
2021/09/07 00:24:28;;;;;;;16.67;10.48;;;11.00;99.90;;;;;;5074274;28;20016;-73
2021/09/07 00:26:54;;;;;;;14.00;10.15;;;11.00;99.90;;;;;;5074386;28;20054;-73
2021/09/07 00:29:20;;;;;;;13.35;9.68;;;11.00;99.90;;;;;;5074107;28;20118;-73
2021/09/07 00:31:45;;;;;;;15.07;10.13;;;11.00;99.90;;;;;;5074099;28;20115;-73
2021/09/07 00:34:11;;;;;;;13.80;9.95;;;11.00;99.90;;;;;;5074056;28;20032;-73
2021/09/07 00:36:37;;;;;;;15.63;11.27;;;10.90;99.90;;;;;;5074053;28;20031;-73
2021/09/07 00:39:03;;;;;;;14.82;10.85;;;10.90;99.90;;;;;;5073991;28;20028;-73
2021/09/07 00:41:28;;;;;;;14.10;10.52;;;10.90;99.90;;;;;;5073775;28;20028;-73
2021/09/07 00:43:54;;;;;;;13.60;10.57;;;10.90;99.90;;;;;;5073862;28;20104;-73
2021/09/07 00:46:20;;;;;;;13.13;10.50;;;10.90;99.90;;;;;;5073766;28;20060;-73
2021/09/07 00:48:45;;;;;;;14.18;10.25;;;10.90;99.90;;;;;;5073772;28;20033;-73
2021/09/07 00:51:11;;;;;;;16.02;10.63;;;10.80;99.90;;;;;;5074120;28;20040;-73
2021/09/07 00:53:40;;;;;;;13.77;9.38;;;10.80;99.90;;;;;;5072683;28;20060;-73
2021/09/07 00:56:06;;;;;;;14.25;10.63;;;10.80;99.90;;;;;;5073919;28;20108;-73
2021/09/07 00:58:34;;;;;;;13.73;10.05;;;10.80;99.90;;;;;;5073469;28;20076;-73
2021/09/07 01:00:59;;;;;;;12.82;9.48;;;10.70;99.90;;;;;;5073498;28;20059;-73
2021/09/07 01:03:25;;;;;;;16.00;10.30;;;10.70;99.90;;;;;;5073747;28;20056;-73
2021/09/07 01:05:50;;;;;;;13.88;9.68;;;10.70;99.90;;;;;;5073906;28;20024;-73
2021/09/07 01:08:16;;;;;;;12.75;9.68;;;10.70;99.90;;;;;;5073859;28;20024;-73
2021/09/07 01:10:41;;;;;;;14.13;10.48;;;10.70;99.90;;;;;;5073473;28;20028;-73
2021/09/07 01:13:07;;;;;;;11.60;9.38;;;10.70;99.90;;;;;;5073371;28;20036;-73
2021/09/07 01:15:34;;;;;;;14.23;10.85;;;10.60;99.90;;;;;;5073607;28;20374;-73
2021/09/07 01:17:59;;;;;;;14.90;10.65;;;10.60;99.90;;;;;;5073402;28;20032;-73
2021/09/07 01:20:25;;;;;;;13.60;9.90;;;10.60;99.90;;;;;;5073628;28;20024;-73
2021/09/07 01:22:50;;;;;;;14.90;10.65;;;10.60;99.90;;;;;;5073348;28;20347;-73
2021/09/07 01:25:17;;;;;;;14.52;10.90;;;10.50;99.90;;;;;;5073444;28;20445;-73
2021/09/07 01:27:44;;;;;;;16.05;10.20;;;10.50;99.90;;;;;;5073521;28;20044;-73
2021/09/07 01:30:10;;;;;;;13.48;10.30;;;10.50;99.90;;;;;;5073499;28;20024;-73
2021/09/07 01:32:36;;;;;;;12.63;10.00;;;10.50;99.90;;;;;;5073345;28;20044;-74
2021/09/07 01:35:02;;;;;;;13.18;9.93;;;10.50;99.90;;;;;;5073567;28;20025;-73
2021/09/07 01:37:28;;;;;;;16.20;10.15;;;10.50;99.90;;;;;;5073103;28;20029;-73
2021/09/07 01:39:53;;;;;;;14.55;11.25;;;10.50;99.90;;;;;;5073205;28;20078;-73
2021/09/07 01:42:22;;;;;;;14.02;10.35;;;10.40;99.90;;;;;;5073648;28;20078;-73
2021/09/07 01:44:48;;;;;;;13.13;9.88;;;10.50;99.90;;;;;;5073088;28;20025;-73
2021/09/07 01:47:14;;;;;;;13.15;9.82;;;10.40;99.90;;;;;;5073203;28;20027;-73
2021/09/07 01:49:40;;;;;;;16.13;9.73;;;10.40;99.90;;;;;;5073008;28;20392;-73
2021/09/07 01:52:11;;;;;;;13.65;9.57;;;10.40;99.90;;;;;;5073103;28;20456;-73
2021/09/07 01:54:41;;;;;;;15.75;9.73;;;10.40;99.90;;;;;;5073111;28;20031;-73
2021/09/07 01:57:07;;;;;;;13.25;9.10;;;10.30;99.90;;;;;;5072879;28;20044;-73
2021/09/07 01:59:33;;;;;;;14.80;9.57;;;10.30;99.90;;;;;;5073053;28;20024;-73
2021/09/07 02:01:59;;;;;;;14.73;9.77;;;10.30;99.90;;;;;;5073092;28;20021;-73
2021/09/07 02:04:24;;;;;;;16.87;10.70;;;10.30;99.90;;;;;;5073107;28;20021;-73
2021/09/07 02:06:50;;;;;;;13.25;9.75;;;10.20;99.90;;;;;;5077124;28;20553;-73
2021/09/07 02:09:15;;;;;;;13.63;9.95;;;10.20;99.90;;;;;;5076961;28;20048;-73
2021/09/07 02:11:41;;;;;;;14.15;10.13;;;10.20;99.90;;;;;;5077048;28;20420;-73
2021/09/07 02:14:07;;;;;;;14.37;10.23;;;10.20;99.90;;;;;;5076725;28;20036;-73
2021/09/07 02:16:32;;;;;;;14.57;10.30;;;10.10;99.90;;;;;;5076781;28;20432;-73
2021/09/07 02:18:58;;;;;;;12.60;9.45;;;10.10;99.90;;;;;;5076635;28;20082;-73
2021/09/07 02:21:23;;;;;;;16.63;10.63;;;10.10;99.90;;;;;;5075184;28;20104;-73
2021/09/07 02:23:49;;;;;;;12.70;9.95;;;10.10;99.90;;;;;;5076790;28;20024;-73
2021/09/07 02:26:14;;;;;;;13.53;9.83;;;10.10;99.90;;;;;;5076433;28;20095;-74
2021/09/07 02:28:40;;;;;;;13.10;9.63;;;10.10;99.90;;;;;;5076719;28;20021;-73
2021/09/07 02:31:07;;;;;;;13.77;10.30;;;10.10;99.90;;;;;;5076360;28;20029;-73
2021/09/07 02:33:32;;;;;;;14.63;9.70;;;10.10;99.90;;;;;;5076443;28;20130;-73
2021/09/07 02:35:58;;;;;;;14.73;10.30;;;10.10;99.90;;;;;;5076475;28;20060;-73
2021/09/07 02:38:24;;;;;;;13.20;9.67;;;10.10;99.90;;;;;;5076207;28;20035;-73
2021/09/07 02:40:49;;;;;;;11.23;9.47;;;10.00;99.90;;;;;;5076153;28;20032;-73
2021/09/07 02:43:15;;;;;;;11.63;9.83;;;10.00;99.90;;;;;;5076156;28;20021;-73
2021/09/07 02:45:40;;;;;;;15.37;10.43;;;10.00;99.90;;;;;;5076027;28;20362;-73
2021/09/07 02:48:06;;;;;;;14.30;11.00;;;10.00;99.90;;;;;;5076025;28;20029;-73
2021/09/07 02:50:31;;;;;;;14.37;10.73;;;10.00;99.90;;;;;;5076545;28;20029;-73
2021/09/07 02:52:57;;;;;;;16.50;11.00;;;10.00;99.90;;;;;;5075956;28;20412;-73
2021/09/07 02:55:23;;;;;;;13.83;11.10;;;10.10;99.90;;;;;;5076058;28;20024;-73
2021/09/07 02:57:48;;;;;;;13.25;10.15;;;10.00;99.90;;;;;;5075755;28;20056;-73
2021/09/07 03:00:14;;;;;;;14.23;9.95;;;10.10;99.90;;;;;;5075775;28;20056;-74
2021/09/07 03:02:40;;;;;;;13.73;9.77;;;10.10;99.90;;;;;;5076178;28;20017;-73
2021/09/07 03:05:06;;;;;;;13.77;9.70;;;10.10;99.90;;;;;;5075765;28;20031;-73
2021/09/07 03:07:32;;;;;;;13.90;9.90;;;10.10;99.90;;;;;;5076026;28;20351;-74
2021/09/07 03:09:57;;;;;;;16.15;10.45;;;10.10;99.90;;;;;;5076334;28;20073;-74
2021/09/07 03:12:23;;;;;;;13.60;11.13;;;10.10;99.90;;;;;;5075743;28;20114;-73
2021/09/07 03:14:48;;;;;;;13.68;9.82;;;10.10;99.90;;;;;;5074387;28;20035;-73
2021/09/07 03:17:14;;;;;;;13.73;9.70;;;10.10;99.90;;;;;;5074564;28;20028;-73
2021/09/07 03:19:40;;;;;;;12.20;10.07;;;10.10;99.90;;;;;;5075862;28;20081;-73
2021/09/07 03:22:06;;;;;;;14.45;10.18;;;10.10;99.90;;;;;;5075365;28;20024;-73
2021/09/07 03:24:32;;;;;;;13.07;10.30;;;10.10;99.90;;;;;;5075394;28;20016;-73
2021/09/07 03:26:57;;;;;;;14.57;10.30;;;10.00;99.90;;;;;;5075761;28;20020;-73
2021/09/07 03:29:23;;;;;;;13.02;9.70;;;10.00;99.90;;;;;;5075735;28;20425;-73
2021/09/07 03:31:48;;;;;;;15.32;10.73;;;10.00;99.90;;;;;;5075556;28;20028;-73
2021/09/07 03:34:14;;;;;;;13.75;9.85;;;10.00;99.90;;;;;;5073943;28;20097;-73
2021/09/07 03:36:39;;;;;;;15.30;9.63;;;9.90;99.90;;;;;;5075271;28;20028;-73
2021/09/07 03:39:05;;;;;;;13.77;9.70;;;9.90;99.90;;;;;;5075395;28;20056;-73
2021/09/07 03:41:30;;;;;;;12.77;9.35;;;9.90;99.90;;;;;;5075073;28;20029;-73
2021/09/07 03:43:56;;;;;;;16.52;9.05;;;9.80;99.90;;;;;;5073708;28;20492;-73
2021/09/07 03:46:21;;;;;;;13.00;9.53;;;9.80;99.90;;;;;;5075150;28;20343;-73
2021/09/07 03:48:47;;;;;;;18.63;9.90;;;9.70;99.90;;;;;;5074918;28;20020;-73
2021/09/07 03:51:12;;;;;;;13.00;8.87;;;9.70;99.90;;;;;;5075028;28;20408;-73
2021/09/07 03:53:38;;;;;;;12.50;9.77;;;9.60;99.90;;;;;;5075281;28;20472;-73
2021/09/07 03:56:04;;;;;;;16.75;9.82;;;9.60;99.90;;;;;;5074741;28;20055;-74
2021/09/07 03:58:29;;;;;;;12.10;8.73;;;9.60;99.90;;;;;;5074616;28;20101;-73
2021/09/07 04:00:55;;;;;;;14.93;8.32;;;9.50;99.90;;;;;;5074725;28;20074;-73
2021/09/07 04:03:21;;;;;;;12.40;9.33;;;9.50;99.90;;;;;;5073343;28;20021;-73
2021/09/07 04:05:48;;;;;;;12.50;9.53;;;9.50;99.90;;;;;;5074746;28;20025;-73
2021/09/07 04:08:14;;;;;;;13.90;9.23;;;9.40;99.90;;;;;;5075135;28;20028;-73
2021/09/07 04:10:40;;;;;;;13.30;8.70;;;9.40;99.90;;;;;;5074448;28;20051;-73
2021/09/07 04:13:06;;;;;;;11.53;8.97;;;9.30;99.90;;;;;;5074417;28;20052;-73
2021/09/07 04:15:32;;;;;;;11.50;9.20;;;9.30;99.90;;;;;;5074549;28;20025;-73
2021/09/07 04:17:57;;;;;;;13.00;9.50;;;9.30;99.90;;;;;;5074440;28;20024;-74
2021/09/07 04:20:23;;;;;;;13.43;8.83;;;9.20;99.90;;;;;;5074470;28;20111;-73
2021/09/07 04:22:49;;;;;;;14.37;9.20;;;9.20;99.90;;;;;;5074138;28;20026;-73
2021/09/07 04:25:15;;;;;;;14.67;9.13;;;9.20;99.90;;;;;;5074614;28;20024;-73
2021/09/07 04:27:40;;;;;;;17.13;9.77;;;9.20;99.90;;;;;;5074065;28;20028;-74
2021/09/07 04:30:07;;;;;;;14.90;9.70;;;9.10;99.90;;;;;;5074215;28;20100;-74
2021/09/07 04:32:33;;;;;;;11.63;9.07;;;9.10;99.90;;;;;;5074009;28;20155;-73
2021/09/07 04:34:58;;;;;;;13.33;9.93;;;9.10;99.90;;;;;;5074308;28;20467;-73
2021/09/07 04:37:24;;;;;;;12.37;9.60;;;9.10;99.90;;;;;;5074119;28;20036;-73
2021/09/07 04:39:50;;;;;;;12.13;9.80;;;9.10;99.90;;;;;;5074465;28;20153;-73
2021/09/07 04:42:17;;;;;;;14.47;9.87;;;9.10;99.90;;;;;;5074683;28;20016;-73
2021/09/07 04:44:43;;;;;;;12.27;9.50;;;9.00;99.90;;;;;;5074099;28;20012;-74
2021/09/07 04:47:08;;;;;;;12.43;9.17;;;9.10;99.90;;;;;;5074277;28;20016;-73
2021/09/07 04:49:34;;;;;;;14.70;9.80;;;9.00;99.90;;;;;;5073851;28;20024;-74
2021/09/07 04:51:59;;;;;;;13.33;9.30;;;9.00;99.90;;;;;;5073850;28;20024;-74
2021/09/07 04:54:25;;;;;;;17.47;10.47;;;9.00;99.90;;;;;;5073730;28;20039;-73
2021/09/07 04:56:51;;;;;;;15.00;9.33;;;9.10;99.90;;;;;;5073990;28;20078;-73
2021/09/07 04:59:16;;;;;;;12.10;8.63;;;9.00;99.90;;;;;;5073758;28;20047;-73
2021/09/07 05:01:43;;;;;;;14.20;10.03;;;9.10;99.90;;;;;;5073612;28;20056;-73
2021/09/07 05:04:09;;;;;;;11.47;8.63;;;9.10;99.90;;;;;;5073820;28;20032;-73
2021/09/07 05:06:34;;;;;;;12.53;8.97;;;9.10;99.90;;;;;;5073547;28;20043;-74
2021/09/07 05:09:00;;;;;;;15.00;9.37;;;9.10;99.90;;;;;;5073804;28;20107;-73
2021/09/07 05:11:25;;;;;;;12.87;9.30;;;9.10;99.90;;;;;;5073508;28;20032;-73
2021/09/07 05:13:51;;;;;;;11.93;8.80;;;9.10;99.90;;;;;;5074104;28;20063;-74
2021/09/07 05:16:16;;;;;;;12.43;9.67;;;9.10;99.90;;;;;;5073499;28;20037;-73
2021/09/07 05:18:42;;;;;;;15.13;9.53;;;9.10;99.90;;;;;;5072458;28;20374;-73
2021/09/07 05:21:07;;;;;;;15.87;9.63;;;9.20;99.90;;;;;;5073359;28;20033;-74
2021/09/07 05:23:33;;;;;;;15.47;8.80;;;9.20;99.90;;;;;;5073919;28;20117;-73
2021/09/07 05:25:58;;;;;;;15.53;9.93;;;9.30;99.90;;;;;;5073492;28;20028;-73
2021/09/07 05:28:24;;;;;;;13.47;9.40;;;9.30;99.90;;;;;;5073346;28;20033;-74
2021/09/07 05:30:50;;;;;;;14.40;9.20;;;9.30;99.90;;;;;;5073526;28;20060;-73
2021/09/07 05:33:15;;;;;;;11.87;9.30;;;9.40;99.90;;;;;;5073519;28;20462;-73
2021/09/07 05:35:41;;;;;;;12.73;9.37;;;9.40;99.90;;;;;;5073440;28;20056;-73
2021/09/07 05:38:07;;;;;;;14.53;8.77;;;9.50;99.90;;;;;;5073662;28;20425;-73
2021/09/07 05:40:32;;;;;;;13.33;9.73;;;9.50;99.90;;;;;;5075465;28;20036;-74
2021/09/07 05:42:58;;;;;;;13.53;9.10;;;9.60;99.90;;;;;;5077419;28;20026;-73
2021/09/07 05:45:23;;;;;;;16.10;9.50;;;9.70;99.90;;;;;;5077404;28;20062;-74
2021/09/07 05:47:49;;;;;;;15.47;9.90;;;9.80;99.90;;;;;;5076741;28;20028;-73
2021/09/07 05:50:15;;;;;;;12.53;9.20;;;10.00;99.90;;;;;;5077406;28;20122;-74
2021/09/07 05:52:45;;;;;;;14.07;9.50;;;10.10;99.90;;;;;;5077593;28;20036;-74
2021/09/07 05:55:12;;;;;;;16.03;10.40;;;10.20;99.90;;;;;;5076758;28;20424;-74
2021/09/07 05:57:38;;;;;;;11.80;9.27;;;10.20;99.90;;;;;;5077182;28;20097;-74
2021/09/07 06:00:05;;;;;;;14.43;8.50;;;10.40;99.90;;;;;;5077401;28;20036;-73
2021/09/07 06:02:31;;;;;;;13.30;8.80;;;10.50;99.90;;;;;;5077526;28;20024;-74
2021/09/07 06:04:56;;;;;;;13.80;9.80;;;10.60;99.90;;;;;;5077441;28;20024;-74
2021/09/07 06:07:22;;;;;;;11.30;9.23;;;10.80;99.90;;;;;;5077142;28;20035;-74
2021/09/07 06:09:48;;;;;;;13.70;9.40;;;10.90;99.90;;;;;;5075774;28;20082;-74
2021/09/07 06:12:13;;;;;;;16.77;9.20;;;11.10;99.90;;;;;;5077066;28;20031;-74
2021/09/07 06:14:39;;;;;;;12.27;8.85;;;11.10;99.90;;;;;;5076920;28;20064;-74
2021/09/07 06:17:07;;;;;;;14.70;9.23;;;11.20;99.90;;;;;;5077534;28;20350;-74
2021/09/07 06:19:33;;;;;;;12.27;10.18;;;11.30;99.90;;;;;;5076739;28;20055;-74
2021/09/07 06:21:58;;;;;;;15.15;9.88;;;11.40;99.90;;;;;;5076874;28;20055;-74
2021/09/07 06:24:24;;;;;;;13.80;10.73;;;11.60;99.90;;;;;;5075388;28;20028;-74
2021/09/07 06:26:49;;;;;;;15.07;10.55;;;11.70;99.90;;;;;;5076980;28;20024;-74
2021/09/07 06:29:15;;;;;;;15.60;10.35;;;11.80;99.90;;;;;;5076697;28;20078;-74
2021/09/07 06:31:41;;;;;;;13.35;10.48;;;11.90;99.90;;;;;;5076514;28;20104;-73
2021/09/07 06:34:06;;;;;;;15.00;10.77;;;12.10;99.90;;;;;;5076979;28;20028;-74
2021/09/07 06:36:32;;;;;;;14.85;11.32;;;12.20;99.90;;;;;;5076801;28;20036;-73
2021/09/07 06:38:58;;;;;;;13.18;10.70;;;12.30;99.90;;;;;;5076686;28;20025;-73
2021/09/07 06:41:23;;;;;;;15.77;11.68;;;12.50;99.90;;;;;;5076320;28;20521;-73
2021/09/07 06:43:49;;;;;;;15.75;10.52;;;12.50;99.90;;;;;;5076263;28;20028;-73
2021/09/07 06:46:14;;;;;;;13.68;11.02;;;12.60;99.90;;;;;;5076284;28;20515;-73
2021/09/07 06:48:40;;;;;;;13.50;10.50;;;12.80;99.90;;;;;;5076100;28;20059;-73
2021/09/07 06:51:06;;;;;;;14.43;10.35;;;12.90;99.90;;;;;;5076741;28;20029;-73
2021/09/07 06:53:31;;;;;;;14.82;11.13;;;13.00;99.90;;;;;;5076124;28;20572;-73
2021/09/07 06:55:57;;;;;;;14.98;11.27;;;13.10;99.90;;;;;;5076126;28;20516;-73
2021/09/07 06:58:22;;;;;;;18.77;11.00;;;13.10;99.90;;;;;;5075900;28;20075;-73
2021/09/07 07:00:49;;;;;;;14.57;10.95;;;13.30;99.90;;;;;;5076143;28;20055;-73
2021/09/07 07:03:14;;;;;;;12.88;10.40;;;13.50;99.90;;;;;;5076062;28;20066;-73
2021/09/07 07:05:40;;;;;;;14.88;10.25;;;13.60;99.90;;;;;;5075993;28;20027;-73
2021/09/07 07:08:05;;;;;;;17.95;10.20;;;13.80;99.90;;;;;;5075977;28;20052;-73
2021/09/07 07:10:31;;;;;;;14.95;10.27;;;14.00;99.90;;;;;;5075935;28;20028;-73
2021/09/07 07:12:57;;;;;;;18.45;10.77;;;14.10;99.90;;;;;;5076578;28;20082;-74
2021/09/07 07:15:22;;;;;;;15.98;9.68;;;14.20;99.90;;;;;;5076121;28;20103;-73
2021/09/07 07:17:48;;;;;;;13.68;10.52;;;14.40;99.90;;;;;;5075726;28;20033;-74
2021/09/07 07:20:14;;;;;;;15.82;10.43;;;14.50;99.90;;;;;;5075774;28;20046;-73
2021/09/07 07:22:39;;;;;;;14.13;10.40;;;14.60;99.90;;;;;;5075547;28;20025;-73
2021/09/07 07:25:05;;;;;;;14.40;10.52;;;14.70;99.90;;;;;;5075597;28;20025;-73
2021/09/07 07:27:31;;;;;;;16.25;11.15;;;14.80;99.90;;;;;;5076039;28;20115;-73
2021/09/07 07:29:57;;;;;;;15.32;9.73;;;14.90;99.90;;;;;;5075640;28;20168;-73
2021/09/07 07:32:23;;;;;;;12.60;9.60;;;15.00;99.90;;;;;;5075552;28;20021;-73
2021/09/07 07:34:48;;;;;;;17.60;9.95;;;15.20;99.90;;;;;;5074330;28;20494;-73
2021/09/07 07:37:14;;;;;;;18.33;10.63;;;15.20;99.90;;;;;;5074124;28;20032;-73
2021/09/07 07:39:40;;;;;;;15.68;10.48;;;15.30;99.90;;;;;;5075781;28;20026;-73
2021/09/07 07:42:06;;;;;;;13.60;9.80;;;15.40;99.90;;;;;;5075200;28;20028;-73
2021/09/07 07:44:31;;;;;;;13.60;11.00;;;15.40;99.90;;;;;;5075139;28;20158;-73
2021/09/07 07:46:57;;;;;;;15.90;10.45;;;15.40;99.90;;;;;;5075484;28;20027;-73
2021/09/07 07:49:22;;;;;;;12.50;10.57;;;15.50;99.90;;;;;;5075279;28;20099;-73
2021/09/07 07:51:48;;;;;;;15.52;10.82;;;15.40;99.90;;;;;;5075642;28;20107;-74
2021/09/07 07:54:14;;;;;;;13.02;10.60;;;15.40;99.90;;;;;;5074985;28;20086;-73
2021/09/07 07:56:40;;;;;;;15.95;10.20;;;15.40;99.90;;;;;;5075055;28;20444;-73
2021/09/07 07:59:06;;;;;;;17.08;10.77;;;15.40;99.90;;;;;;5075064;28;20085;-73
2021/09/07 08:01:32;;;;;;;16.55;10.60;;;15.40;99.90;;;;;;5074807;28;20060;-73
2021/09/07 08:03:58;;;;;;;17.20;10.05;;;15.40;99.90;;;;;;5074239;28;20047;-73
2021/09/07 08:06:23;;;;;;;12.93;9.77;;;15.60;99.90;;;;;;5075057;28;20036;-73
2021/09/07 08:08:50;;;;;;;14.05;9.90;;;15.60;99.90;;;;;;5073395;28;20024;-73
2021/09/07 08:11:18;;;;;;;15.88;10.05;;;15.70;99.90;;;;;;5075139;28;20025;-73
2021/09/07 08:13:43;;;;;;;13.77;9.65;;;15.80;99.90;;;;;;5074927;28;20028;-73
2021/09/07 08:16:09;;;;;;;13.63;9.73;;;15.90;99.90;;;;;;5074642;28;20033;-73
2021/09/07 08:18:35;;;;;;;17.23;10.60;;;15.90;99.90;;;;;;5074723;28;20032;-73
2021/09/07 08:21:00;;;;;;;15.05;10.32;;;16.00;99.90;;;;;;5074699;28;20036;-73
2021/09/07 08:23:26;;;;;;;14.68;10.07;;;16.10;99.90;;;;;;5074628;28;20025;-73
2021/09/07 08:25:52;;;;;;;15.52;10.35;;;16.20;99.90;;;;;;5074652;28;20462;-73
2021/09/07 08:28:18;;;;;;;14.52;9.85;;;16.30;99.90;;;;;;5075299;28;20020;-73
2021/09/07 08:30:44;;;;;;;15.20;9.90;;;16.40;99.90;;;;;;5074565;28;20028;-73
2021/09/07 08:33:17;;;;;;;14.85;10.27;;;16.40;99.90;;;;;;5074301;28;20082;-73
2021/09/07 08:35:43;;;;;;;16.08;10.75;;;16.50;99.90;;;;;;5074414;28;20029;-73
2021/09/07 08:38:10;;;;;;;12.13;10.13;;;16.60;99.90;;;;;;5074085;28;20052;-73
2021/09/07 08:40:36;;;;;;;14.85;10.38;;;16.70;99.90;;;;;;5074250;28;20043;-73
2021/09/07 08:43:03;;;;;;;15.07;9.70;;;16.80;99.90;;;;;;5074295;28;20074;-73
2021/09/07 08:45:29;;;;;;;14.40;9.73;;;17.00;99.90;;;;;;5074014;28;20025;-74
2021/09/07 08:47:57;;;;;;;17.23;9.77;;;17.10;99.90;;;;;;5074197;28;20020;-74
2021/09/07 08:50:23;;;;;;;15.00;9.40;;;17.20;99.90;;;;;;5074145;28;20449;-73
2021/09/07 08:52:49;;;;;;;17.15;9.80;;;17.30;99.90;;;;;;5074061;28;20076;-74
2021/09/07 08:55:15;;;;;;;16.85;9.40;;;17.50;99.90;;;;;;5073919;28;20021;-73
2021/09/07 08:57:41;;;;;;;17.85;9.50;;;17.70;99.90;;;;;;5073814;28;20053;-73
2021/09/07 09:00:07;;;;;;;16.83;10.10;;;17.90;99.90;;;;;;5073788;28;20021;-73
2021/09/07 09:02:43;;;;;;;11.73;9.40;;;18.10;99.90;;;;;;5074085;28;20087;-74
2021/09/07 09:05:10;;;;;;;19.60;10.52;;;18.30;99.90;;;;;;5072656;28;20427;-73
2021/09/07 09:07:37;;;;;;;20.50;9.93;;;18.40;99.90;;;;;;5073676;28;20021;-73
2021/09/07 09:10:04;;;;;;;21.27;9.95;;;18.50;99.90;;;;;;5073864;28;20021;-73
2021/09/07 09:12:41;;;;;;;13.25;9.43;;;18.80;99.90;;;;;;5073600;28;20035;-74
2021/09/07 09:15:14;;;;;;;20.63;10.32;;;18.90;99.90;;;;;;5073245;28;20017;-74
2021/09/07 09:17:40;;;;;;;21.10;10.02;;;19.10;99.90;;;;;;5073541;28;20028;-73
2021/09/07 09:20:17;;;;;;;17.08;11.43;;;19.30;99.90;;;;;;5073684;28;20071;-73
2021/09/07 09:22:54;;;;;;;21.75;11.20;;;19.40;99.90;;;;;;5073987;28;20017;-74
2021/09/07 09:25:23;;;;;;;23.42;11.55;;;19.40;99.90;;;;;;5073424;28;20409;-73
2021/09/07 09:27:55;;;;;;;22.45;11.02;;;19.50;99.90;;;;;;5073361;28;20470;-73
2021/09/07 09:30:30;;;;;;;15.02;10.38;;;19.60;99.90;;;;;;5073675;28;20028;-74
2021/09/07 09:32:58;;;;;;;14.35;9.45;;;19.80;99.90;;;;;;5073587;28;20104;-74
2021/09/07 09:35:24;;;;;;;14.55;8.95;;;20.00;99.90;;;;;;5073665;28;20041;-74
2021/09/07 09:37:57;;;;;;;12.73;8.27;;;20.40;99.90;;;;;;5073583;28;20344;-73
2021/09/07 09:40:24;;;;;;;15.13;9.07;;;20.60;99.90;;;;;;5074043;28;20438;-73
2021/09/07 09:42:49;;;;;;;14.50;9.07;;;20.80;99.90;;;;;;5073591;28;20051;-74
2021/09/07 09:45:17;;;;;;;11.88;8.75;;;21.00;99.90;;;;;;5073243;28;20096;-74
2021/09/07 09:47:52;;;;;;;14.02;9.63;;;21.20;99.90;;;;;;5073276;28;20103;-74
2021/09/07 09:50:18;;;;;;;14.00;9.32;;;21.60;99.90;;;;;;5073407;28;20021;-74
2021/09/07 09:52:46;;;;;;;12.20;9.05;;;21.70;99.90;;;;;;5073453;28;20079;-73
2021/09/07 09:55:13;;;;;;;13.82;9.63;;;21.90;99.90;;;;;;5073530;28;20043;-73
2021/09/07 09:57:40;;;;;;;14.18;9.27;;;22.00;99.90;;;;;;5073357;28;20044;-74
2021/09/07 10:00:11;;;;;;;14.13;9.75;;;22.20;99.90;;;;;;5073037;28;20025;-74
2021/09/07 10:02:36;;;;;;;13.85;9.10;;;22.60;99.90;;;;;;5073530;28;20073;-74
2021/09/07 10:05:03;;;;;;;13.48;8.82;;;22.80;99.90;;;;;;5073422;28;20432;-74
2021/09/07 10:07:28;;;;;;;11.60;8.00;;;22.90;99.90;;;;;;5073062;28;20021;-73
2021/09/07 10:09:58;;;;;;;15.98;8.82;;;23.10;99.90;;;;;;5073075;28;20039;-74
2021/09/07 10:12:41;;;;;;;18.73;7.55;;;23.40;99.90;;;;;;5073064;28;20028;-74
2021/09/07 10:15:58;;;;;;;16.08;8.27;;;23.60;99.90;;;;;;5073065;28;20048;-74
2021/09/07 10:21:13;;;;;;;;;;;23.90;99.90;;;;;;5073709;28;20029;-74
2021/09/07 10:26:44;;;;;;;10.98;7.75;;;24.00;99.90;;;;;;5074906;28;20174;-74
2021/09/07 10:29:14;;;;;;;9.48;7.40;;;24.40;99.90;;;;;;5076905;28;20024;-74
2021/09/07 10:31:53;;;;;;;10.55;7.88;;;24.40;99.90;;;;;;5076657;28;20029;-74
2021/09/07 10:34:25;;;;;;;9.10;7.05;;;24.60;99.90;;;;;;5076664;28;20542;-74
2021/09/07 10:37:06;;;;;;;9.80;7.57;;;24.70;99.90;;;;;;5076480;28;20039;-74
2021/09/07 10:39:35;;;;;;;8.85;7.00;;;24.70;99.90;;;;;;5077059;28;20029;-74
2021/09/07 10:42:12;;;;;;;8.40;5.80;;;24.80;99.90;;;;;;5076351;28;20028;-74
2021/09/07 10:44:39;;;;;;;10.73;6.80;;;25.10;99.90;;;;;;5076704;28;20094;-74
2021/09/07 10:47:06;;;;;;;8.07;6.50;;;24.80;99.90;;;;;;5076424;28;20036;-74
2021/09/07 10:49:36;;;;;;;9.07;6.50;;;24.90;99.90;;;;;;5076326;28;20420;-73
2021/09/07 10:52:14;;;;;;;8.10;6.10;;;24.70;99.90;;;;;;5076231;28;20027;-74
2021/09/07 10:54:44;;;;;;;9.57;6.32;;;24.60;99.90;;;;;;5076382;28;20033;-74
2021/09/07 10:57:36;;;;;;;12.88;7.35;;;24.70;99.90;;;;;;5076192;28;20091;-74
2021/09/07 11:00:14;;;;;;;10.15;7.47;;;24.60;99.90;;;;;;5075961;28;20096;-74
2021/09/07 11:02:44;;;;;;;10.90;6.97;;;24.90;99.90;;;;;;5076159;28;20033;-74
2021/09/07 11:05:32;;;;;;;8.60;7.00;;;24.90;99.90;;;;;;5076094;28;20031;-73
2021/09/07 11:08:14;;;;;;;9.07;6.28;;;24.70;99.90;;;;;;5075960;28;20070;-74
2021/09/07 11:10:48;;;;;;;8.27;7.03;;;24.60;99.90;;;;;;5075978;28;20023;-74
2021/09/07 11:13:20;;;;;;;;;;;24.50;99.90;;;;;;5076240;28;20032;-74
2021/09/07 11:15:46;;;;;;;8.68;6.50;;;24.40;99.90;;;;;;5075724;28;19954;-74
2021/09/07 11:18:21;;;;;;;9.43;6.95;;;24.30;99.90;;;;;;5075707;28;20051;-73
2021/09/07 11:20:48;;;;;;;10.25;7.00;;;24.20;99.90;;;;;;5075599;28;20029;-74
2021/09/07 11:23:16;;;;;;;10.23;6.97;;;24.40;99.90;;;;;;5075687;28;20029;-74
2021/09/07 11:25:45;;;;;;;11.23;7.85;;;24.60;99.90;;;;;;5075911;28;20020;-74
2021/09/07 11:28:13;;;;;;;13.60;7.05;;;24.70;99.90;;;;;;5075877;28;20478;-74
2021/09/07 11:30:41;;;;;;;11.27;6.10;;;25.00;99.90;;;;;;5075504;28;20020;-74
2021/09/07 11:33:08;;;;;;;9.15;7.00;;;25.20;99.90;;;;;;5075523;28;20025;-74
2021/09/07 11:35:39;;;;;;;9.45;7.05;;;25.30;99.90;;;;;;5075623;28;20031;-74
2021/09/07 11:38:10;;;;;;;9.65;7.00;;;25.30;99.90;;;;;;5074515;28;20031;-74
2021/09/07 11:40:53;;;;;;;10.10;7.05;;;25.00;99.90;;;;;;5075556;28;20374;-74
2021/09/07 11:43:38;;;;;;;9.55;7.25;;;24.80;99.90;;;;;;5075332;28;20045;-74
2021/09/07 11:46:09;;;;;;;10.38;7.20;;;24.70;99.90;;;;;;5075253;28;20246;-74
2021/09/07 11:48:36;;;;;;;8.98;7.03;;;24.50;99.90;;;;;;5075262;28;20074;-74
2021/09/07 11:51:03;;;;;;;9.25;6.20;;;24.60;99.90;;;;;;5055199;28;20108;-74
2021/09/07 11:53:29;;;;;;;12.15;6.93;;;24.90;99.90;;;;;;5055613;28;20029;-74
2021/09/07 11:55:55;;;;;;;9.27;7.03;;;25.10;99.90;;;;;;5055269;28;20055;-74
2021/09/07 11:58:35;;;;;;;12.55;7.75;;;25.40;99.90;;;;;;5055061;28;20059;-74
2021/09/07 12:01:15;;;;;;;9.40;6.45;;;25.50;99.90;;;;;;5055008;28;20504;-74
2021/09/07 12:03:48;;;;;;;10.00;7.18;;;25.50;99.90;;;;;;5055350;28;20025;-74
2021/09/07 12:06:19;;;;;;;10.13;7.35;;;25.50;99.90;;;;;;5055154;28;20025;-73
2021/09/07 12:08:48;;;;;;;12.05;7.20;;;25.50;99.90;;;;;;5054797;28;20031;-73
2021/09/07 12:11:28;;;;;;;8.00;7.07;;;25.50;99.90;;;;;;5055088;28;20528;-74
2021/09/07 12:14:01;;;;;;;8.73;6.80;;;25.50;99.90;;;;;;5054976;28;20447;-74
2021/09/07 12:16:27;;;;;;;13.90;6.43;;;25.50;99.70;;;;;;5054652;28;20033;-74
2021/09/07 12:18:52;;;;;;;9.68;6.80;;;25.50;99.80;;;;;;5054951;28;20029;-74
2021/09/07 12:21:26;;;;;;;9.55;6.68;;;25.40;99.90;;;;;;5054856;28;20032;-74
2021/09/07 12:23:54;;;;;;;11.70;7.07;;;25.20;99.90;;;;;;5055196;28;20018;-74
2021/09/07 12:26:37;;;;;;;10.98;6.90;;;25.00;99.90;;;;;;5054677;28;20025;-74
2021/09/07 12:29:13;;;;;;;8.20;6.65;;;25.00;99.90;;;;;;5054604;28;20489;-73
2021/09/07 12:31:39;;;;;;;10.93;6.82;;;25.00;99.90;;;;;;5054664;28;20082;-74
2021/09/07 12:34:05;;;;;;;7.90;6.80;;;25.00;99.80;;;;;;5054357;28;20020;-74
2021/09/07 12:36:44;;;;;;;8.77;6.47;;;24.90;99.40;;;;;;5054378;28;20025;-74
2021/09/07 12:39:10;;;;;;;9.70;6.60;;;24.80;97.90;;;;;;5054523;28;20032;-74
2021/09/07 12:41:35;;;;;;;8.88;6.40;;;25.00;99.70;;;;;;5054020;28;20025;-74